Time;durP1;ratioP1;P1;durP2;ratioP2;P2;SDS_P1;SDS_P2;PMS_P1;PMS_P2;Temp;Humidity;BMP_temperature;BMP_pressure;BME280_temperature;BME280_humidity;BME280_pressure;Samples;Min_cycle;Max_cycle;Signal;HPM_P1;HPM_P2
2023/01/05 00:01:46;;;;;;;31.42;6.93;;;10.80;89.50;;;;;;4982788;28;20145;-76
2023/01/05 00:04:13;;;;;;;40.28;7.80;;;10.80;89.40;;;;;;4985960;28;20220;-79
2023/01/05 00:06:40;;;;;;;30.88;6.55;;;10.80;89.40;;;;;;4983082;28;20703;-75
2023/01/05 00:09:12;;;;;;;44.75;7.72;;;10.80;89.40;;;;;;4980642;28;20841;-75
2023/01/05 00:22:52;;;;;;;39.55;7.15;;;10.80;89.00;;;;;;4982196;28;20057;-76
2023/01/05 00:25:21;;;;;;;36.00;7.28;;;10.80;88.90;;;;;;4981722;28;20077;-76
2023/01/05 00:27:50;;;;;;;40.22;7.80;;;10.90;88.90;;;;;;4984241;28;20030;-77
2023/01/05 00:30:18;;;;;;;38.30;6.85;;;10.90;88.70;;;;;;4984285;28;20026;-76
2023/01/05 00:32:44;;;;;;;35.70;7.50;;;10.90;88.50;;;;;;4980261;28;20046;-75
2023/01/05 00:35:11;;;;;;;34.72;6.35;;;10.80;88.60;;;;;;4987102;28;20034;-77
2023/01/05 00:37:37;;;;;;;31.80;7.18;;;10.80;88.80;;;;;;4984486;28;20026;-75
2023/01/05 00:40:05;;;;;;;36.33;7.68;;;10.80;88.90;;;;;;4984288;28;20022;-75
2023/01/05 00:42:31;;;;;;;28.92;6.85;;;10.80;88.80;;;;;;4984198;28;20031;-76
2023/01/05 00:44:56;;;;;;;31.95;6.75;;;10.80;88.70;;;;;;4977142;28;20026;-75
2023/01/05 00:47:22;;;;;;;36.65;6.65;;;10.70;88.70;;;;;;4981245;28;20046;-79
2023/01/05 00:49:48;;;;;;;35.90;6.70;;;10.70;88.90;;;;;;4983480;28;20530;-78
2023/01/05 00:52:13;;;;;;;38.80;6.82;;;10.70;89.00;;;;;;4983241;28;20486;-77
2023/01/05 00:54:39;;;;;;;33.90;7.50;;;10.60;88.80;;;;;;4983995;28;20061;-78
2023/01/05 00:57:06;;;;;;;32.50;6.65;;;10.60;88.90;;;;;;4979734;28;20061;-78
2023/01/05 00:59:32;;;;;;;30.02;7.00;;;10.60;88.90;;;;;;4985211;28;20120;-75
2023/01/05 01:01:58;;;;;;;40.95;8.05;;;10.60;89.00;;;;;;4985325;28;20037;-76
2023/01/05 01:04:24;;;;;;;37.15;8.38;;;10.60;89.00;;;;;;4985774;28;20058;-78
2023/01/05 01:06:49;;;;;;;34.20;7.78;;;10.60;88.90;;;;;;4981359;28;20042;-75
2023/01/05 01:09:15;;;;;;;30.83;7.18;;;10.60;88.90;;;;;;4985012;28;20026;-76
2023/01/05 01:11:41;;;;;;;38.63;7.35;;;10.60;88.70;;;;;;4983996;28;20034;-79
2023/01/05 01:14:09;;;;;;;34.33;7.53;;;10.60;88.70;;;;;;4978154;28;20050;-77
2023/01/05 01:16:35;;;;;;;32.13;7.85;;;10.70;88.60;;;;;;4981671;28;20053;-75
2023/01/05 01:19:01;;;;;;;30.92;6.70;;;10.70;88.40;;;;;;4988283;28;20027;-75
2023/01/05 01:21:27;;;;;;;36.17;7.82;;;10.80;88.30;;;;;;4990564;28;20047;-78
2023/01/05 01:23:53;;;;;;;43.50;8.52;;;10.80;88.10;;;;;;4984646;28;20038;-77
2023/01/05 01:26:18;;;;;;;32.10;7.07;;;10.90;88.00;;;;;;4986760;28;20038;-75
2023/01/05 01:28:46;;;;;;;31.70;7.00;;;10.90;88.00;;;;;;4987130;28;20130;-75
2023/01/05 01:31:13;;;;;;;36.95;7.55;;;10.90;88.10;;;;;;4983667;28;20050;-76
2023/01/05 01:33:39;;;;;;;34.50;7.78;;;10.90;88.00;;;;;;4983465;28;20105;-78
2023/01/05 01:36:07;;;;;;;33.80;8.23;;;10.90;88.00;;;;;;4984530;28;20121;-77
2023/01/05 01:38:33;;;;;;;37.90;7.65;;;10.80;88.10;;;;;;4985939;28;20038;-78
2023/01/05 01:40:59;;;;;;;37.70;7.55;;;10.70;88.20;;;;;;4988393;28;20566;-79
2023/01/05 01:43:40;;;;;;;37.95;8.43;;;10.70;88.50;;;;;;4993996;28;20541;-76
2023/01/05 01:46:06;;;;;;;37.72;8.18;;;10.60;88.60;;;;;;4990402;28;20042;-76
2023/01/05 01:48:32;;;;;;;39.95;8.23;;;10.60;88.70;;;;;;4995681;28;20025;-75
2023/01/05 01:51:04;;;;;;;36.35;7.45;;;10.60;88.90;;;;;;4981606;28;20034;-77
2023/01/05 01:53:39;;;;;;;37.97;8.18;;;10.60;88.80;;;;;;4995529;28;20497;-76
2023/01/05 01:56:07;;;;;;;34.40;7.57;;;10.60;89.00;;;;;;4984657;28;20038;-75
2023/01/05 01:58:33;;;;;;;38.40;6.90;;;10.60;89.00;;;;;;4993518;28;20064;-75
2023/01/05 02:01:02;;;;;;;36.92;7.13;;;10.60;88.90;;;;;;4987875;28;20065;-78
2023/01/05 02:03:29;;;;;;;37.90;7.82;;;10.60;89.00;;;;;;4995108;28;20051;-79
2023/01/05 02:05:55;;;;;;;38.53;7.15;;;10.60;88.90;;;;;;4994775;28;20042;-75
2023/01/05 02:08:30;;;;;;;34.88;7.88;;;10.60;89.00;;;;;;4998973;28;20033;-77
2023/01/05 02:11:01;;;;;;;35.63;7.40;;;10.50;89.10;;;;;;4984000;28;20126;-77
2023/01/05 02:13:55;;;;;;;32.08;8.10;;;10.50;89.40;;;;;;4991721;28;20055;-76
2023/01/05 02:16:28;;;;;;;38.80;7.28;;;10.60;89.40;;;;;;4986279;28;20097;-76
2023/01/05 02:19:29;;;;;;;38.03;7.97;;;10.60;89.30;;;;;;4984448;28;20479;-76
2023/01/05 02:22:16;;;;;;;33.42;6.90;;;10.60;89.50;;;;;;4984105;28;20382;-76
2023/01/05 02:25:03;;;;;;;36.05;8.07;;;10.60;89.40;;;;;;4989951;28;20014;-79
2023/01/05 02:27:44;;;;;;;33.60;8.07;;;10.60;89.30;;;;;;4986982;28;20043;-79
2023/01/05 02:30:43;;;;;;;41.60;7.78;;;10.60;89.30;;;;;;4993008;28;20033;-76
2023/01/05 02:33:33;;;;;;;38.35;7.05;;;10.60;89.20;;;;;;4993790;28;20050;-76
2023/01/05 02:36:28;;;;;;;43.90;7.90;;;10.60;89.30;;;;;;4985909;28;20165;-75
2023/01/05 02:39:18;;;;;;;43.08;8.07;;;10.50;89.30;;;;;;4989260;28;20125;-77
2023/01/05 02:41:52;;;;;;;42.70;8.23;;;10.50;89.60;;;;;;4993355;28;20130;-75
2023/01/05 02:44:19;;;;;;;39.10;7.38;;;10.50;89.60;;;;;;4994426;28;20089;-75
2023/01/05 02:46:45;;;;;;;38.80;8.40;;;10.50;89.40;;;;;;4989660;28;20578;-77
2023/01/05 02:49:14;;;;;;;31.63;6.72;;;10.50;89.30;;;;;;4993645;28;20033;-78
2023/01/05 02:51:45;;;;;;;36.58;7.45;;;10.50;89.20;;;;;;4990417;28;20056;-76
2023/01/05 02:54:13;;;;;;;39.05;6.78;;;10.50;89.20;;;;;;4991586;28;20031;-75
2023/01/05 02:56:45;;;;;;;39.13;7.53;;;10.50;89.00;;;;;;4985689;28;20040;-76
2023/01/05 02:59:22;;;;;;;33.53;7.82;;;10.50;89.10;;;;;;4994267;28;20482;-76
2023/01/05 03:01:54;;;;;;;44.05;8.55;;;10.50;89.10;;;;;;4982052;28;20042;-79
2023/01/05 03:04:25;;;;;;;35.42;7.00;;;10.50;89.00;;;;;;4987036;28;20018;-75
2023/01/05 03:06:55;;;;;;;39.67;7.32;;;10.50;89.00;;;;;;4986747;28;20125;-75
2023/01/05 03:09:25;;;;;;;41.75;8.20;;;10.50;88.90;;;;;;4992305;28;20029;-76
2023/01/05 03:14:58;;;;;;;30.70;7.00;;;10.50;88.80;;;;;;4989607;28;20181;-74
2023/01/05 03:17:46;;;;;;;38.05;7.03;;;10.50;88.70;;;;;;4987283;28;20042;-74
2023/01/05 03:20:14;;;;;;;33.47;7.38;;;10.60;88.50;;;;;;4989620;28;20031;-74
2023/01/05 03:37:13;;;;;;;32.38;7.05;;;10.60;88.20;;;;;;4997647;28;20053;-78
2023/01/05 03:39:42;;;;;;;31.58;6.78;;;10.60;88.20;;;;;;4995753;28;20097;-76
2023/01/05 03:42:10;;;;;;;34.42;7.20;;;10.50;88.20;;;;;;4982995;28;20053;-76
2023/01/05 03:44:38;;;;;;;36.85;6.97;;;10.60;88.30;;;;;;4992060;28;20109;-80
2023/01/05 03:47:03;;;;;;;35.72;7.38;;;10.60;88.30;;;;;;4990744;28;20037;-76
2023/01/05 03:49:30;;;;;;;32.05;6.97;;;10.60;88.30;;;;;;4989812;28;20080;-78
2023/01/05 03:51:55;;;;;;;34.15;8.20;;;10.60;88.20;;;;;;4987318;28;20042;-79
2023/01/05 03:54:21;;;;;;;41.67;7.97;;;10.60;88.10;;;;;;4984957;28;20038;-76
2023/01/05 03:56:47;;;;;;;34.45;7.80;;;10.60;88.10;;;;;;4988557;28;20034;-77
2023/01/05 03:59:13;;;;;;;37.53;7.78;;;10.60;88.10;;;;;;4982535;28;20030;-79
2023/01/05 04:01:38;;;;;;;39.05;7.57;;;10.70;87.90;;;;;;4984129;28;20057;-77
2023/01/05 04:04:04;;;;;;;31.25;6.72;;;10.70;87.80;;;;;;4986203;28;20023;-76
2023/01/05 04:06:30;;;;;;;42.65;8.20;;;10.70;87.70;;;;;;4984603;28;20696;-77
2023/01/05 04:08:56;;;;;;;34.97;6.47;;;10.70;87.50;;;;;;4984923;28;20459;-78
2023/01/05 04:11:23;;;;;;;39.40;7.95;;;10.60;87.80;;;;;;4988074;28;20107;-77
2023/01/05 04:13:49;;;;;;;33.15;8.20;;;10.60;87.90;;;;;;4988511;28;20151;-76
2023/01/05 04:16:15;;;;;;;41.00;7.30;;;10.60;87.90;;;;;;4983802;28;20435;-76
2023/01/05 04:18:41;;;;;;;27.60;6.78;;;10.70;87.80;;;;;;4984685;28;20022;-78
2023/01/05 04:21:06;;;;;;;37.60;7.50;;;10.70;87.60;;;;;;4982884;28;20033;-76
2023/01/05 04:23:32;;;;;;;41.05;8.10;;;10.60;87.80;;;;;;4991054;28;20525;-76
2023/01/05 04:25:58;;;;;;;36.85;7.03;;;10.60;88.00;;;;;;4992386;28;20030;-78
2023/01/05 04:28:23;;;;;;;35.25;7.15;;;10.60;88.00;;;;;;4993897;28;20033;-80
2023/01/05 04:30:51;;;;;;;32.17;7.60;;;10.60;88.10;;;;;;4987014;28;20044;-77
2023/01/05 04:33:18;;;;;;;44.10;7.80;;;10.50;88.20;;;;;;4983436;28;20018;-77
2023/01/05 04:35:43;;;;;;;33.25;7.97;;;10.50;88.20;;;;;;4984501;28;20038;-77
2023/01/05 04:38:11;;;;;;;32.97;7.65;;;10.50;88.30;;;;;;4987252;28;20037;-79
2023/01/05 04:40:36;;;;;;;35.90;7.15;;;10.50;88.30;;;;;;4987076;28;20033;-76
2023/01/05 04:43:02;;;;;;;34.78;7.15;;;10.50;88.40;;;;;;4983898;28;20026;-75
2023/01/05 04:45:28;;;;;;;45.38;7.60;;;10.40;88.50;;;;;;4980359;28;20045;-76
2023/01/05 04:47:54;;;;;;;41.05;8.00;;;10.40;88.50;;;;;;4983958;28;20395;-76
2023/01/05 04:50:19;;;;;;;42.65;7.70;;;10.40;88.50;;;;;;4983470;28;20034;-82
2023/01/05 04:52:45;;;;;;;39.72;7.43;;;10.30;88.60;;;;;;4988010;28;20117;-79
2023/01/05 04:55:11;;;;;;;40.33;8.32;;;10.30;88.60;;;;;;4983056;28;20027;-77
2023/01/05 04:57:37;;;;;;;42.72;7.93;;;10.30;88.70;;;;;;4992595;28;20026;-77
2023/01/05 05:00:03;;;;;;;43.67;8.32;;;10.30;88.80;;;;;;4997658;28;20072;-77
2023/01/05 05:02:29;;;;;;;40.95;8.48;;;10.40;88.60;;;;;;4987537;28;20038;-76
2023/01/05 05:04:55;;;;;;;42.35;8.05;;;10.40;88.60;;;;;;4983720;28;20092;-80
2023/01/05 05:07:20;;;;;;;44.63;8.45;;;10.40;88.50;;;;;;4975959;28;21000;-79
2023/01/05 05:09:46;;;;;;;41.20;8.43;;;10.30;88.60;;;;;;4986755;28;20029;-80
2023/01/05 05:12:12;;;;;;;41.40;8.52;;;10.30;88.60;;;;;;4999656;28;20714;-74
2023/01/05 05:14:38;;;;;;;37.05;6.93;;;10.30;88.80;;;;;;4982268;28;20046;-74
2023/01/05 05:17:04;;;;;;;36.38;7.78;;;10.30;88.90;;;;;;4985720;28;20084;-76
2023/01/05 05:19:30;;;;;;;35.72;8.52;;;10.30;89.00;;;;;;4990247;28;20045;-75
2023/01/05 05:21:56;;;;;;;39.63;8.75;;;10.30;89.00;;;;;;4978789;28;20030;-75
2023/01/05 05:24:21;;;;;;;37.50;9.05;;;10.40;88.80;;;;;;4997342;28;20112;-75
2023/01/05 05:26:47;;;;;;;39.28;8.18;;;10.40;88.70;;;;;;4995828;28;20057;-75
2023/01/05 05:29:13;;;;;;;45.10;8.05;;;10.40;88.60;;;;;;4974473;28;20034;-80
2023/01/05 05:31:38;;;;;;;44.33;7.63;;;10.60;88.30;;;;;;4988611;28;20045;-79
2023/01/05 05:34:04;;;;;;;43.28;8.07;;;10.60;88.00;;;;;;4982844;28;20060;-75
2023/01/05 05:36:30;;;;;;;43.20;8.32;;;10.60;88.10;;;;;;4990587;28;20394;-75
2023/01/05 05:38:57;;;;;;;38.17;8.45;;;10.60;88.00;;;;;;4989986;28;20378;-75
2023/01/05 05:41:23;;;;;;;36.30;7.60;;;10.50;87.90;;;;;;4982571;28;20042;-76
2023/01/05 05:43:49;;;;;;;40.50;8.18;;;10.60;87.90;;;;;;4990195;28;20033;-75
2023/01/05 05:46:15;;;;;;;42.53;7.60;;;10.60;87.90;;;;;;4992175;28;20042;-75
2023/01/05 05:48:41;;;;;;;42.60;9.75;;;10.60;87.90;;;;;;4987040;28;20022;-78
2023/01/05 05:51:06;;;;;;;43.03;8.32;;;10.60;87.90;;;;;;4983399;28;20134;-75
2023/01/05 05:53:32;;;;;;;40.70;8.88;;;10.60;87.80;;;;;;4993700;28;20165;-75
2023/01/05 05:55:58;;;;;;;42.30;7.72;;;10.50;87.80;;;;;;4989482;28;20514;-77
2023/01/05 05:58:24;;;;;;;37.60;7.85;;;10.40;87.90;;;;;;4996012;28;20080;-78
2023/01/05 06:00:49;;;;;;;42.00;7.85;;;10.40;87.90;;;;;;4995929;28;20109;-78
2023/01/05 06:03:15;;;;;;;39.45;8.32;;;10.40;87.90;;;;;;4985346;28;20497;-79
2023/01/05 06:05:41;;;;;;;41.85;10.13;;;10.30;88.00;;;;;;4981443;28;20035;-75
2023/01/05 06:08:06;;;;;;;34.67;7.63;;;10.30;88.00;;;;;;4986968;28;20049;-77
2023/01/05 06:10:32;;;;;;;39.20;6.95;;;10.20;88.10;;;;;;4976736;28;20546;-76
2023/01/05 06:12:58;;;;;;;38.85;7.57;;;10.20;88.10;;;;;;4982916;28;20533;-76
2023/01/05 06:15:23;;;;;;;45.67;8.07;;;10.20;88.20;;;;;;4982677;28;20042;-77
2023/01/05 06:17:49;;;;;;;48.47;9.07;;;10.20;88.30;;;;;;4982049;28;20026;-75
2023/01/05 06:20:16;;;;;;;34.17;7.20;;;10.20;88.20;;;;;;4996559;28;20036;-78
2023/01/05 06:22:43;;;;;;;36.78;7.70;;;10.10;88.30;;;;;;4993189;28;20037;-76
2023/01/05 06:25:09;;;;;;;36.35;7.25;;;10.10;88.40;;;;;;4986807;28;20066;-74
2023/01/05 06:27:35;;;;;;;39.25;7.18;;;10.10;88.40;;;;;;4991927;28;20041;-80
2023/01/05 06:30:02;;;;;;;36.20;7.70;;;10.10;88.50;;;;;;4991771;28;20081;-76
2023/01/05 06:32:27;;;;;;;33.42;7.50;;;10.00;88.70;;;;;;4985245;28;20520;-75
2023/01/05 06:34:53;;;;;;;36.15;7.47;;;10.00;88.70;;;;;;4993532;28;20144;-77
2023/01/05 06:37:19;;;;;;;37.40;7.10;;;10.00;88.90;;;;;;4991110;28;20034;-77
2023/01/05 06:39:44;;;;;;;32.05;7.70;;;10.00;88.80;;;;;;4994850;28;20025;-77
2023/01/05 06:42:10;;;;;;;34.28;7.75;;;10.00;88.80;;;;;;4999630;28;20164;-81
2023/01/05 06:44:36;;;;;;;44.58;8.68;;;10.00;88.90;;;;;;4998665;28;20685;-74
2023/01/05 06:47:01;;;;;;;40.72;7.97;;;9.90;88.90;;;;;;4996629;28;20479;-79
2023/01/05 06:49:27;;;;;;;38.45;8.25;;;9.90;88.90;;;;;;4995009;28;20018;-74
2023/01/05 06:51:54;;;;;;;40.92;7.97;;;9.90;89.20;;;;;;4989290;28;20120;-74
2023/01/05 06:54:19;;;;;;;33.95;7.47;;;9.80;89.10;;;;;;4989837;28;20039;-76
2023/01/05 06:56:45;;;;;;;37.10;8.55;;;9.80;89.30;;;;;;4982832;28;20069;-76
2023/01/05 06:59:11;;;;;;;40.30;8.50;;;9.80;89.50;;;;;;4988320;28;20482;-80
2023/01/05 07:01:38;;;;;;;36.78;7.07;;;9.80;89.60;;;;;;4989279;28;20026;-78
2023/01/05 07:04:03;;;;;;;39.17;9.10;;;9.70;89.50;;;;;;4985509;28;20069;-75
2023/01/05 07:06:29;;;;;;;34.75;6.78;;;9.80;89.50;;;;;;4995206;28;20451;-79
2023/01/05 07:08:55;;;;;;;41.17;7.85;;;9.80;89.50;;;;;;4989455;28;20101;-76
2023/01/05 07:11:20;;;;;;;44.40;10.30;;;9.70;89.50;;;;;;4993742;28;20394;-76
2023/01/05 07:13:48;;;;;;;42.35;9.85;;;9.80;89.60;;;;;;4990531;28;20053;-79
2023/01/05 07:16:13;;;;;;;36.33;8.90;;;9.80;89.60;;;;;;4988258;28;20158;-74
2023/01/05 07:18:39;;;;;;;35.80;7.75;;;9.80;89.60;;;;;;4989634;28;20042;-77
2023/01/05 07:21:05;;;;;;;38.63;7.35;;;9.90;89.40;;;;;;4983910;28;20667;-78
2023/01/05 07:23:30;;;;;;;32.03;8.07;;;9.90;89.40;;;;;;4992666;28;20668;-75
2023/01/05 07:26:00;;;;;;;39.83;8.18;;;9.90;89.40;;;;;;4986818;28;20026;-78
2023/01/05 07:28:26;;;;;;;41.60;8.10;;;9.80;89.30;;;;;;4990797;28;20018;-75
2023/01/05 07:30:51;;;;;;;43.85;7.93;;;9.90;89.50;;;;;;4992825;28;20040;-76
2023/01/05 07:33:17;;;;;;;41.53;7.78;;;9.90;89.40;;;;;;4984740;28;20034;-78
2023/01/05 07:35:43;;;;;;;40.95;8.38;;;10.00;89.30;;;;;;4992589;28;20033;-74
2023/01/05 07:38:09;;;;;;;47.80;8.57;;;10.00;89.10;;;;;;4988511;28;20060;-74
2023/01/05 07:40:35;;;;;;;34.55;8.07;;;10.00;89.10;;;;;;4989385;28;20022;-76
2023/01/05 07:43:01;;;;;;;34.28;7.60;;;10.00;89.10;;;;;;4978780;28;20026;-75
2023/01/05 07:45:26;;;;;;;43.83;9.77;;;10.10;89.20;;;;;;4984327;28;20462;-79
2023/01/05 07:47:52;;;;;;;35.17;7.68;;;10.10;88.90;;;;;;4991453;28;20501;-77
2023/01/05 07:50:17;;;;;;;44.72;8.13;;;10.10;88.90;;;;;;4985901;28;20092;-77
2023/01/05 07:52:43;;;;;;;38.97;8.23;;;10.20;88.80;;;;;;4997279;28;20044;-78
2023/01/05 07:55:09;;;;;;;36.10;7.43;;;10.10;88.70;;;;;;4985726;28;20419;-75
2023/01/05 07:57:35;;;;;;;32.47;6.80;;;10.20;88.70;;;;;;4996761;28;20096;-76
2023/01/05 08:00:01;;;;;;;33.45;8.00;;;10.20;88.60;;;;;;4989595;28;20034;-74
2023/01/05 08:02:26;;;;;;;32.95;7.15;;;10.20;88.40;;;;;;4991781;28;20050;-74
2023/01/05 08:04:52;;;;;;;43.80;8.27;;;10.20;88.50;;;;;;4983923;28;20177;-78
2023/01/05 08:07:18;;;;;;;40.90;7.45;;;10.20;88.50;;;;;;4986383;28;20046;-74
2023/01/05 08:12:29;;;;;;;37.70;7.97;;;10.20;88.40;;;;;;4995640;28;20053;-77
2023/01/05 08:14:55;;;;;;;42.70;8.18;;;10.30;88.40;;;;;;4986798;28;20041;-78
2023/01/05 08:17:21;;;;;;;36.85;6.65;;;10.30;88.30;;;;;;4992331;28;20128;-74
2023/01/05 08:19:46;;;;;;;38.53;8.10;;;10.30;88.20;;;;;;4986463;28;20390;-75
2023/01/05 08:22:12;;;;;;;39.72;8.10;;;10.30;88.10;;;;;;4993990;28;20074;-78
2023/01/05 08:24:38;;;;;;;34.25;7.57;;;10.30;88.00;;;;;;4989753;28;20791;-73
2023/01/05 08:27:03;;;;;;;38.88;7.10;;;10.30;88.00;;;;;;4996805;28;20037;-75
2023/01/05 08:29:29;;;;;;;36.72;7.50;;;10.40;87.80;;;;;;4988524;28;20049;-74
2023/01/05 08:31:55;;;;;;;34.88;7.25;;;10.30;87.80;;;;;;4999012;28;20045;-74
2023/01/05 08:34:21;;;;;;;38.35;7.70;;;10.30;87.80;;;;;;4994285;28;20033;-78
2023/01/05 08:36:47;;;;;;;32.50;6.85;;;10.40;87.70;;;;;;4987370;28;20526;-74
2023/01/05 08:39:12;;;;;;;36.30;7.80;;;10.30;87.60;;;;;;4981324;28;20623;-76
2023/01/05 08:41:39;;;;;;;32.63;7.03;;;10.40;87.50;;;;;;4984296;28;20117;-75
2023/01/05 08:44:14;;;;;;;35.03;7.20;;;10.40;87.40;;;;;;4986466;28;20114;-78
2023/01/05 08:46:40;;;;;;;41.17;7.70;;;10.40;87.40;;;;;;4982096;28;20260;-76
2023/01/05 08:49:08;;;;;;;34.25;6.85;;;10.40;87.20;;;;;;4982656;28;20533;-78
2023/01/05 08:51:34;;;;;;;34.53;6.90;;;10.40;87.20;;;;;;4982894;28;20639;-80
2023/01/05 08:53:59;;;;;;;36.13;7.07;;;10.40;87.20;;;;;;4984077;28;20063;-75
2023/01/05 08:56:25;;;;;;;35.15;7.88;;;10.40;87.30;;;;;;4986178;28;20424;-76
2023/01/05 08:58:54;;;;;;;33.00;7.50;;;10.30;87.20;;;;;;4986661;28;20084;-74
2023/01/05 09:01:20;;;;;;;30.70;6.70;;;10.40;87.20;;;;;;4982709;28;20481;-73
2023/01/05 09:03:46;;;;;;;36.00;7.82;;;10.40;87.20;;;;;;4980370;28;20413;-79
2023/01/05 09:06:13;;;;;;;31.27;7.68;;;10.40;87.30;;;;;;4984962;28;20509;-74
2023/01/05 09:08:40;;;;;;;36.55;7.88;;;10.40;87.30;;;;;;4982402;28;20077;-73
2023/01/05 09:11:20;;;;;;;35.83;7.70;;;10.40;87.20;;;;;;4977613;28;20050;-79
2023/01/05 09:13:48;;;;;;;26.20;6.07;;;10.40;87.20;;;;;;4989242;28;20133;-86
2023/01/05 09:16:17;;;;;;;31.42;7.68;;;10.40;87.40;;;;;;4985466;28;20658;-74
2023/01/05 09:18:43;;;;;;;33.38;7.57;;;10.50;87.30;;;;;;4976259;28;20022;-72
2023/01/05 09:21:09;;;;;;;38.97;8.05;;;10.50;87.20;;;;;;4984844;28;20041;-79
2023/01/05 09:23:36;;;;;;;36.00;7.18;;;10.40;87.20;;;;;;4986148;28;20026;-75
2023/01/05 09:26:07;;;;;;;40.00;7.80;;;10.50;87.20;;;;;;4988158;28;20045;-73
2023/01/05 09:28:35;;;;;;;36.28;8.52;;;10.60;87.10;;;;;;4981148;28;20029;-79
2023/01/05 09:31:15;;;;;;;41.67;8.52;;;10.60;86.90;;;;;;4988395;28;20497;-83
2023/01/05 09:33:42;;;;;;;30.10;6.63;;;10.60;86.90;;;;;;4983702;28;20042;-77
2023/01/05 09:36:09;;;;;;;41.40;7.28;;;10.60;86.70;;;;;;4982535;28;20034;-75
2023/01/05 09:38:35;;;;;;;39.95;8.32;;;10.60;86.90;;;;;;4983277;28;20023;-75
2023/01/05 09:41:27;;;;;;;38.33;7.47;;;10.60;86.70;;;;;;4982970;28;20048;-77
2023/01/05 09:44:04;;;;;;;40.03;7.80;;;10.70;86.70;;;;;;4973901;28;20043;-78
2023/01/05 09:46:35;;;;;;;35.55;7.97;;;10.70;86.80;;;;;;4980847;28;20030;-74
2023/01/05 09:49:04;;;;;;;39.30;8.43;;;10.70;86.80;;;;;;4981518;28;20026;-75
2023/01/05 09:51:30;;;;;;;31.35;7.32;;;10.70;86.50;;;;;;4981761;28;20034;-74
2023/01/05 09:53:57;;;;;;;31.95;7.45;;;10.80;86.60;;;;;;4980060;28;20091;-75
2023/01/05 09:56:35;;;;;;;33.42;7.70;;;10.80;86.60;;;;;;4981105;28;20045;-75
2023/01/05 09:59:29;;;;;;;39.25;8.20;;;10.80;86.60;;;;;;4985190;28;20085;-76
2023/01/05 10:01:59;;;;;;;37.47;8.13;;;10.90;86.70;;;;;;4978862;28;20065;-74
2023/01/05 10:04:27;;;;;;;29.60;7.75;;;10.90;86.60;;;;;;4981651;28;20046;-74
2023/01/05 10:06:59;;;;;;;37.00;8.82;;;10.90;86.50;;;;;;4983066;28;20096;-76
2023/01/05 10:09:32;;;;;;;34.20;7.47;;;11.00;86.70;;;;;;4981721;28;20108;-76
2023/01/05 10:15:15;;;;;;;37.47;8.63;;;11.10;86.40;;;;;;4983137;28;20065;-73
2023/01/05 10:17:41;;;;;;;32.38;8.00;;;11.10;86.50;;;;;;4984211;28;20132;-72
2023/01/05 10:20:45;;;;;;;35.08;8.35;;;11.30;86.50;;;;;;4985839;28;20034;-77
2023/01/05 10:23:26;;;;;;;35.53;8.68;;;11.40;86.40;;;;;;4980110;28;20522;-76
2023/01/05 10:26:03;;;;;;;35.65;7.97;;;11.60;86.30;;;;;;4986862;28;20038;-76
2023/01/05 10:29:01;;;;;;;37.80;8.43;;;11.60;85.70;;;;;;4982624;28;20030;-76
2023/01/05 10:31:42;;;;;;;38.50;9.30;;;11.70;85.50;;;;;;4968448;28;20050;-73
2023/01/05 10:34:21;;;;;;;32.13;7.55;;;11.70;85.40;;;;;;4985281;28;20066;-75
2023/01/05 10:37:05;;;;;;;38.78;7.80;;;11.80;85.60;;;;;;4983587;28;20471;-76
2023/01/05 10:39:55;;;;;;;31.52;7.60;;;11.80;85.50;;;;;;4984492;28;20025;-76
2023/01/05 10:42:58;;;;;;;34.47;7.90;;;11.90;85.20;;;;;;4988000;28;20114;-74
2023/01/05 10:45:27;;;;;;;40.40;9.02;;;12.00;85.20;;;;;;4985866;28;20113;-75
2023/01/05 10:47:53;;;;;;;33.83;7.72;;;12.10;84.90;;;;;;4985746;28;20022;-79
2023/01/05 10:50:34;;;;;;;39.33;7.00;;;12.20;84.60;;;;;;4985194;28;20565;-73
2023/01/05 10:53:24;;;;;;;37.88;7.60;;;12.30;84.40;;;;;;4988119;28;20026;-73
2023/01/05 10:56:14;;;;;;;36.17;7.78;;;12.10;84.30;;;;;;4992861;28;20038;-77
2023/01/05 10:58:42;;;;;;;35.95;7.32;;;12.20;84.70;;;;;;4996417;28;20046;-74
2023/01/05 11:01:29;;;;;;;30.80;7.10;;;12.30;84.60;;;;;;4992075;28;20104;-76
2023/01/05 11:04:17;;;;;;;35.05;7.55;;;12.30;84.50;;;;;;4988397;28;20021;-75
2023/01/05 11:06:43;;;;;;;35.42;8.23;;;12.30;84.30;;;;;;4982619;28;20050;-79
2023/01/05 11:09:09;;;;;;;38.88;7.93;;;12.40;84.00;;;;;;4990305;28;20048;-75
2023/01/05 11:11:35;;;;;;;29.88;8.57;;;12.50;83.90;;;;;;4990425;28;20501;-80
2023/01/05 11:14:01;;;;;;;43.30;8.35;;;12.50;84.00;;;;;;4979853;28;20762;-71
2023/01/05 11:16:31;;;;;;;35.72;8.45;;;12.60;84.00;;;;;;4984273;28;20502;-73
2023/01/05 11:19:01;;;;;;;40.72;8.85;;;12.60;84.00;;;;;;4988692;28;20452;-80
2023/01/05 11:21:47;;;;;;;36.05;8.80;;;12.70;83.90;;;;;;4989094;28;20037;-74
2023/01/05 11:24:33;;;;;;;36.80;8.25;;;12.70;83.90;;;;;;4987008;28;20554;-78
2023/01/05 11:27:20;;;;;;;35.58;8.20;;;12.70;83.80;;;;;;4972616;28;20039;-72
2023/01/05 11:30:14;;;;;;;40.33;8.55;;;12.70;83.70;;;;;;4981828;28;20027;-80
2023/01/05 11:32:44;;;;;;;31.10;7.80;;;12.70;84.10;;;;;;4980484;28;20054;-75
2023/01/05 11:35:19;;;;;;;36.80;7.53;;;12.60;84.60;;;;;;4988945;28;20498;-74
2023/01/05 11:37:45;;;;;;;35.20;7.47;;;12.60;85.10;;;;;;4986483;28;20109;-74
2023/01/05 11:40:17;;;;;;;31.95;7.85;;;12.60;85.30;;;;;;4991858;28;20180;-72
2023/01/05 11:42:43;;;;;;;40.67;8.43;;;12.80;85.20;;;;;;4980489;28;20038;-73
2023/01/05 11:45:21;;;;;;;34.53;6.95;;;12.80;85.10;;;;;;4982228;28;20532;-75
2023/01/05 11:47:57;;;;;;;27.30;5.75;;;12.90;84.80;;;;;;4983505;28;20062;-74
2023/01/05 11:50:32;;;;;;;33.15;6.82;;;13.10;84.80;;;;;;4979432;28;20419;-73
2023/01/05 11:53:01;;;;;;;35.17;6.95;;;13.00;84.80;;;;;;4980244;28;20315;-74
2023/01/05 11:55:39;;;;;;;37.92;7.75;;;13.00;85.20;;;;;;4970597;28;20019;-75
2023/01/05 11:58:13;;;;;;;31.35;6.70;;;13.10;85.20;;;;;;4980214;28;20369;-74
2023/01/05 12:01:04;;;;;;;31.52;6.93;;;13.10;85.40;;;;;;4980657;28;20087;-72
2023/01/05 12:03:54;;;;;;;28.83;7.07;;;13.10;86.00;;;;;;4992007;28;20501;-72
2023/01/05 12:07:01;;;;;;;28.75;6.70;;;13.10;86.80;;;;;;4969428;28;20050;-75
2023/01/05 12:09:34;;;;;;;29.83;7.50;;;13.10;87.80;;;;;;4984653;28;20038;-76
2023/01/05 12:12:19;;;;;;;31.13;7.47;;;13.00;88.20;;;;;;4977567;28;20038;-73
2023/01/05 12:14:47;;;;;;;25.75;6.60;;;13.00;88.60;;;;;;4977815;28;20054;-76
2023/01/05 12:17:15;;;;;;;30.35;6.57;;;13.00;89.00;;;;;;4977851;28;20137;-74
2023/01/05 12:19:44;;;;;;;22.98;7.07;;;12.80;89.70;;;;;;4981311;28;20109;-73
2023/01/05 12:22:12;;;;;;;30.13;8.48;;;12.80;90.00;;;;;;4974110;28;20062;-75
2023/01/05 12:24:49;;;;;;;34.55;8.40;;;12.80;90.20;;;;;;4975447;28;20030;-75
2023/01/05 12:27:42;;;;;;;33.95;7.95;;;12.80;90.50;;;;;;4973353;28;20042;-78
2023/01/05 12:30:40;;;;;;;36.40;12.45;;;12.80;90.50;;;;;;4974622;28;20065;-77
2023/01/05 12:33:43;;;;;;;36.17;10.65;;;12.80;90.40;;;;;;4971938;28;20050;-77
2023/01/05 12:36:15;;;;;;;35.97;8.30;;;12.80;90.20;;;;;;4973178;28;20124;-72
2023/01/05 12:38:59;;;;;;;37.35;9.45;;;12.70;90.30;;;;;;4973041;28;20022;-78
2023/01/05 12:41:34;;;;;;;39.88;8.63;;;12.60;90.60;;;;;;4974139;28;20490;-72
2023/01/05 12:44:40;;;;;;;36.83;11.10;;;12.60;90.70;;;;;;4971727;28;20027;-73
2023/01/05 12:47:50;;;;;;;37.50;10.45;;;12.60;91.10;;;;;;4974211;28;20541;-76
2023/01/05 12:50:32;;;;;;;34.50;9.23;;;12.60;91.20;;;;;;4988063;28;20030;-73
2023/01/05 12:53:20;;;;;;;35.53;8.82;;;12.60;91.20;;;;;;4976375;28;20042;-74
2023/01/05 12:55:55;;;;;;;40.75;10.15;;;12.60;91.20;;;;;;4975648;28;20038;-78
2023/01/05 12:58:28;;;;;;;35.15;10.05;;;12.60;91.10;;;;;;4986290;28;20026;-74
2023/01/05 13:00:56;;;;;;;40.80;11.43;;;12.60;91.20;;;;;;4984108;28;20034;-73
2023/01/05 13:03:32;;;;;;;42.35;11.38;;;12.60;91.30;;;;;;4978165;28;20073;-76
2023/01/05 13:06:03;;;;;;;32.13;9.20;;;12.70;91.30;;;;;;4973260;28;20122;-74
2023/01/05 13:08:39;;;;;;;38.40;9.23;;;12.70;91.20;;;;;;4976994;28;20054;-76
2023/01/05 13:11:30;;;;;;;34.00;9.60;;;12.70;91.20;;;;;;4972171;28;20038;-75
2023/01/05 13:14:14;;;;;;;31.45;9.88;;;12.70;91.20;;;;;;4977213;28;20038;-70
2023/01/05 13:16:51;;;;;;;30.63;8.18;;;12.60;91.20;;;;;;4975859;28;20060;-70
2023/01/05 13:19:19;;;;;;;25.38;8.02;;;12.70;91.20;;;;;;4985581;28;20054;-72
2023/01/05 13:21:46;;;;;;;25.48;7.70;;;12.80;91.20;;;;;;4979482;28;20038;-71
2023/01/05 13:24:51;;;;;;;26.75;8.32;;;12.80;91.20;;;;;;4983663;28;20150;-71
2023/01/05 13:27:17;;;;;;;22.73;7.38;;;12.80;91.10;;;;;;4985822;28;20030;-72
2023/01/05 13:29:48;;;;;;;22.95;6.72;;;12.80;91.10;;;;;;4984198;28;20026;-70
2023/01/05 13:32:25;;;;;;;18.98;6.75;;;12.80;91.00;;;;;;4981788;28;20596;-72